createdAt,value
2023-08-17T00:00:21.941Z,70.08
2023-08-17T00:01:26.067Z,69.94
2023-08-17T00:02:28.271Z,70.18
2023-08-17T00:03:30.720Z,69.93
2023-08-17T00:04:33.044Z,69.61
2023-08-17T00:05:35.495Z,70.22
2023-08-17T00:06:37.852Z,70.53
2023-08-17T00:07:40.210Z,70.66
2023-08-17T00:08:43.171Z,70.11
2023-08-17T00:09:46.425Z,70.56
2023-08-17T00:10:48.943Z,70.85
2023-08-17T00:11:51.437Z,71.00
2023-08-17T00:12:56.457Z,71.07
2023-08-17T00:13:58.793Z,71.22
2023-08-17T00:16:03.897Z,71.04
2023-08-17T00:17:06.277Z,71.05
2023-08-17T00:18:09.052Z,71.17
2023-08-17T00:19:11.632Z,71.43
2023-08-17T00:20:16.312Z,72.50
2023-08-17T00:21:18.943Z,71.43
2023-08-17T00:22:22.358Z,71.86
2023-08-17T00:23:24.536Z,71.49
2023-08-17T00:24:27.216Z,70.60
2023-08-17T00:25:29.672Z,70.42
2023-08-17T00:26:32.260Z,71.03
2023-08-17T00:27:35.763Z,70.84
2023-08-17T00:28:38.445Z,70.50
2023-08-17T00:29:42.102Z,70.70
2023-08-17T00:30:45.776Z,70.25
2023-08-17T00:31:48.561Z,70.89
2023-08-17T00:32:50.943Z,70.62
2023-08-17T00:33:55.854Z,70.96
2023-08-17T00:34:58.195Z,70.78
2023-08-17T00:36:00.701Z,71.30
2023-08-17T00:37:03.643Z,70.22
2023-08-17T00:38:06.519Z,70.72
2023-08-17T00:39:09.092Z,70.68
2023-08-17T00:40:12.888Z,70.51
2023-08-17T00:41:15.318Z,70.54
2023-08-17T00:42:17.726Z,70.70
2023-08-17T00:43:20.165Z,70.44
2023-08-17T00:44:22.830Z,70.44
2023-08-17T00:45:25.263Z,71.30
2023-08-17T00:46:28.411Z,70.78
2023-08-17T00:47:31.947Z,71.10
2023-08-17T00:48:34.981Z,70.94
2023-08-17T00:49:37.527Z,71.53
2023-08-17T00:50:41.194Z,71.83
2023-08-17T00:51:44.212Z,71.52
2023-08-17T00:52:46.682Z,71.61
2023-08-17T00:53:49.172Z,71.50
2023-08-17T00:54:52.068Z,71.39
2023-08-17T00:55:54.965Z,71.40
2023-08-17T00:56:57.593Z,71.24
2023-08-17T00:58:02.287Z,71.16
2023-08-17T00:59:06.480Z,70.73
2023-08-17T01:00:12.949Z,70.80
2023-08-17T01:01:15.717Z,70.88
2023-08-17T01:02:19.641Z,70.91
2023-08-17T01:03:23.975Z,71.18
2023-08-17T01:04:26.357Z,71.35
2023-08-17T01:05:30.143Z,71.35
2023-08-17T01:06:32.478Z,71.58
2023-08-17T01:07:35.334Z,71.75
2023-08-17T01:08:40.097Z,71.73
2023-08-17T01:09:43.219Z,71.65
2023-08-17T01:10:55.175Z,71.67
2023-08-17T01:12:17.264Z,71.46
2023-08-17T01:13:25.964Z,71.70
2023-08-17T01:14:40.499Z,71.92
2023-08-17T01:15:49.379Z,71.84
2023-08-17T01:17:13.672Z,72.03
2023-08-17T01:18:25.846Z,72.06
2023-08-17T01:19:28.849Z,72.31
2023-08-17T01:20:32.043Z,72.40
2023-08-17T01:22:56.923Z,72.45
2023-08-17T01:24:02.891Z,73.27
2023-08-17T01:25:05.774Z,72.83
2023-08-17T01:26:08.499Z,72.62
2023-08-17T01:27:10.853Z,72.32
2023-08-17T01:28:13.144Z,72.64
2023-08-17T01:29:17.438Z,72.79
2023-08-17T01:30:20.382Z,72.84
2023-08-17T01:31:36.801Z,72.58
2023-08-17T01:32:57.736Z,72.80
2023-08-17T01:34:03.745Z,72.78
2023-08-17T01:35:09.745Z,72.67
2023-08-17T01:36:15.686Z,72.76
2023-08-17T01:37:22.001Z,72.71
2023-08-17T01:38:27.122Z,72.91
2023-08-17T01:39:33.255Z,72.69
2023-08-17T01:40:36.609Z,72.65
2023-08-17T01:41:41.954Z,72.66
2023-08-17T01:42:44.468Z,73.42
2023-08-17T01:43:48.201Z,73.06
2023-08-17T01:44:52.309Z,73.46
2023-08-17T01:45:55.033Z,73.43
2023-08-17T01:46:57.810Z,73.43
2023-08-17T01:48:00.242Z,73.53
2023-08-17T01:49:02.882Z,73.43
2023-08-17T01:50:07.259Z,73.43
2023-08-17T01:51:11.277Z,73.62
2023-08-17T01:52:13.701Z,73.64
2023-08-17T01:53:16.062Z,73.42
2023-08-17T01:54:18.803Z,73.33
2023-08-17T01:56:35.133Z,73.28
2023-08-17T01:57:37.684Z,73.44
2023-08-17T01:58:41.340Z,73.04
2023-08-17T01:59:43.674Z,73.09
2023-08-17T02:00:46.787Z,73.40
2023-08-17T02:01:49.322Z,73.23
2023-08-17T02:02:51.661Z,73.48
2023-08-17T02:03:54.421Z,73.69
2023-08-17T02:04:56.587Z,73.84
2023-08-17T02:06:01.576Z,73.75
2023-08-17T02:07:04.300Z,73.70
2023-08-17T02:08:07.230Z,73.83
2023-08-17T02:09:09.445Z,73.88
2023-08-17T02:10:12.959Z,73.92
2023-08-17T02:11:15.475Z,73.97
2023-08-17T02:12:18.868Z,73.82
2023-08-17T02:13:21.733Z,73.51
2023-08-17T02:14:24.098Z,73.62
2023-08-17T02:15:26.421Z,73.72
2023-08-17T02:16:28.870Z,73.45
2023-08-17T02:17:31.489Z,73.25
2023-08-17T02:18:35.292Z,73.40
2023-08-17T02:19:38.005Z,73.75
2023-08-17T02:20:40.799Z,74.00
2023-08-17T02:21:43.203Z,74.17
2023-08-17T02:22:45.455Z,74.29
2023-08-17T02:23:47.616Z,74.43
2023-08-17T02:24:49.668Z,74.43
2023-08-17T02:25:51.904Z,74.51
2023-08-17T02:26:56.653Z,74.68
2023-08-17T02:28:01.149Z,74.64
2023-08-17T02:29:03.619Z,74.72
2023-08-17T02:30:08.225Z,75.05
2023-08-17T02:31:11.082Z,74.93
2023-08-17T02:32:13.383Z,74.86
2023-08-17T02:33:16.033Z,75.42
2023-08-17T02:34:18.817Z,75.65
2023-08-17T02:35:21.131Z,76.29
2023-08-17T02:36:23.481Z,76.16
2023-08-17T02:37:26.241Z,76.34
2023-08-17T02:38:28.644Z,76.34
2023-08-17T02:39:30.894Z,77.03
2023-08-17T02:40:33.380Z,76.84
2023-08-17T02:41:35.752Z,76.73
2023-08-17T02:42:40.004Z,77.05
2023-08-17T02:43:42.170Z,78.12
2023-08-17T02:44:44.650Z,78.79
2023-08-17T02:45:47.744Z,79.05
2023-08-17T02:46:50.257Z,79.08
2023-08-17T02:47:52.669Z,79.07
2023-08-17T02:48:55.034Z,78.99
2023-08-17T02:49:57.296Z,79.25
2023-08-17T02:50:59.592Z,79.15
2023-08-17T02:52:02.681Z,78.76
2023-08-17T02:53:06.629Z,78.58
2023-08-17T02:54:09.199Z,78.60
2023-08-17T02:55:11.403Z,78.21
2023-08-17T02:56:13.869Z,77.87
2023-08-17T02:57:16.177Z,78.11
2023-08-17T02:58:18.572Z,78.11
2023-08-17T02:59:20.986Z,77.65
2023-08-17T03:00:23.657Z,77.83
2023-08-17T03:01:26.243Z,77.90
2023-08-17T03:02:28.686Z,77.38
2023-08-17T03:03:31.248Z,77.46
2023-08-17T03:04:34.027Z,77.07
2023-08-17T03:05:36.547Z,77.24
2023-08-17T03:06:38.911Z,77.38
2023-08-17T03:07:41.895Z,77.43
2023-08-17T03:08:44.328Z,77.20
2023-08-17T03:09:47.374Z,77.30
2023-08-17T03:10:50.189Z,77.14
2023-08-17T03:11:54.274Z,77.28
2023-08-17T03:12:56.828Z,77.20
2023-08-17T03:14:02.812Z,77.43
2023-08-17T03:15:07.283Z,77.23
2023-08-17T03:16:11.459Z,77.13
2023-08-17T03:17:13.904Z,77.27
2023-08-17T03:18:16.208Z,77.33
2023-08-17T03:19:18.652Z,77.45
2023-08-17T03:20:22.058Z,77.41
2023-08-17T03:21:24.939Z,77.34
2023-08-17T03:22:27.794Z,77.24
2023-08-17T03:23:30.945Z,77.17
2023-08-17T03:24:33.576Z,77.48
2023-08-17T03:25:36.158Z,78.05
2023-08-17T03:26:38.531Z,78.24
2023-08-17T03:27:42.637Z,78.51
2023-08-17T03:28:45.814Z,78.46
2023-08-17T03:29:48.554Z,78.41
2023-08-17T03:30:50.890Z,78.62
2023-08-17T03:31:55.795Z,78.45
2023-08-17T03:32:57.941Z,78.67
2023-08-17T03:34:01.710Z,78.67
2023-08-17T03:35:05.262Z,78.82
2023-08-17T03:36:08.081Z,78.74
2023-08-17T03:37:10.900Z,78.75
2023-08-17T03:38:14.322Z,78.52
2023-08-17T03:39:16.848Z,78.71
2023-08-17T03:40:19.307Z,78.48
2023-08-17T03:41:24.177Z,78.42
2023-08-17T03:42:26.424Z,79.10
2023-08-17T03:43:29.068Z,78.60
2023-08-17T03:44:32.475Z,78.20
2023-08-17T03:45:34.958Z,78.72
2023-08-17T03:46:38.335Z,78.78
2023-08-17T03:47:40.575Z,78.73
2023-08-17T03:48:42.697Z,78.76
2023-08-17T03:49:45.895Z,78.61
2023-08-17T03:50:50.315Z,78.56
2023-08-17T03:51:52.742Z,78.39
2023-08-17T03:52:55.021Z,78.12
2023-08-17T03:53:58.354Z,78.39
2023-08-17T03:55:00.708Z,78.15
2023-08-17T03:56:03.269Z,78.22
2023-08-17T03:57:05.714Z,77.87
2023-08-17T03:58:08.106Z,77.89
2023-08-17T03:59:10.470Z,77.63
2023-08-17T04:00:16.702Z,77.22
2023-08-17T04:01:18.787Z,77.31
2023-08-17T04:02:21.647Z,77.50
2023-08-17T04:03:23.909Z,77.47
2023-08-17T04:04:26.600Z,77.48
2023-08-17T04:05:29.159Z,77.39
2023-08-17T04:06:31.604Z,77.64
2023-08-17T04:07:34.414Z,77.60
2023-08-17T04:08:39.274Z,77.42
2023-08-17T04:09:45.427Z,77.59
2023-08-17T04:10:47.842Z,77.40
2023-08-17T04:11:50.121Z,77.46
2023-08-17T04:12:52.931Z,77.72
2023-08-17T04:13:55.255Z,77.58
2023-08-17T04:14:59.701Z,77.67
2023-08-17T04:16:02.136Z,77.16
2023-08-17T04:17:04.779Z,77.16
2023-08-17T04:18:07.678Z,77.01
2023-08-17T04:19:10.586Z,76.93
2023-08-17T04:20:13.977Z,77.28
2023-08-17T04:21:16.350Z,77.47
2023-08-17T04:22:18.737Z,77.81
2023-08-17T04:23:22.003Z,77.69
2023-08-17T04:24:24.480Z,77.10
2023-08-17T04:25:26.862Z,76.99
2023-08-17T04:26:29.324Z,76.87
2023-08-17T04:27:31.638Z,76.57
2023-08-17T04:28:34.127Z,76.93
2023-08-17T04:29:37.587Z,78.19
2023-08-17T04:30:41.407Z,78.44
2023-08-17T04:31:44.025Z,76.80
2023-08-17T04:32:49.633Z,76.34
2023-08-17T04:33:53.271Z,76.20
2023-08-17T04:34:55.942Z,76.42
2023-08-17T04:35:59.591Z,76.38
2023-08-17T04:37:02.769Z,76.34
2023-08-17T04:38:05.489Z,76.68
2023-08-17T04:39:08.649Z,76.57
2023-08-17T04:40:12.728Z,76.72
2023-08-17T04:41:16.194Z,76.42
2023-08-17T04:42:20.705Z,75.80
2023-08-17T04:43:23.136Z,76.10
2023-08-17T04:44:26.115Z,75.35
2023-08-17T04:45:28.662Z,75.55
2023-08-17T04:46:31.982Z,75.34
2023-08-17T04:47:34.484Z,74.58
2023-08-17T04:48:36.612Z,75.13
2023-08-17T04:49:39.905Z,74.69
2023-08-17T04:50:43.819Z,74.51
2023-08-17T04:51:48.393Z,75.24
2023-08-17T04:52:50.980Z,74.52
2023-08-17T04:53:54.122Z,74.49
2023-08-17T04:54:56.645Z,74.31
2023-08-17T04:56:00.808Z,74.79
2023-08-17T04:57:05.103Z,74.38
2023-08-17T04:58:07.553Z,74.12
2023-08-17T04:59:10.056Z,74.15
2023-08-17T05:00:14.562Z,74.02
2023-08-17T05:01:19.910Z,73.41
2023-08-17T05:02:23.589Z,73.33
2023-08-17T05:03:33.858Z,73.19
2023-08-17T05:04:31.625Z,73.32
2023-08-17T05:05:35.866Z,72.93
2023-08-17T05:06:40.396Z,72.31
2023-08-17T05:07:42.535Z,72.52
2023-08-17T05:08:46.174Z,72.26
2023-08-17T05:09:48.585Z,71.84
2023-08-17T05:10:51.391Z,71.75
2023-08-17T05:11:54.966Z,72.47
2023-08-17T05:12:57.674Z,72.25
2023-08-17T05:14:02.248Z,72.38
2023-08-17T05:15:06.149Z,72.63
2023-08-17T05:16:09.521Z,72.87
2023-08-17T05:17:12.064Z,72.81
2023-08-17T05:18:15.234Z,73.09
2023-08-17T05:19:18.939Z,72.97
2023-08-17T05:20:21.918Z,72.57
2023-08-17T05:21:25.416Z,72.46
2023-08-17T05:22:28.467Z,72.38
2023-08-17T05:23:30.861Z,72.22
2023-08-17T05:24:33.143Z,71.99
2023-08-17T05:25:35.461Z,72.20
2023-08-17T05:26:38.006Z,71.76
2023-08-17T05:27:41.523Z,71.60
2023-08-17T05:28:45.556Z,71.48
2023-08-17T05:29:47.995Z,71.60
2023-08-17T05:30:51.770Z,71.76
2023-08-17T05:31:54.820Z,71.52
2023-08-17T05:32:57.264Z,71.55
2023-08-17T05:34:00.017Z,71.14
2023-08-17T05:35:02.560Z,71.09
2023-08-17T05:36:05.678Z,70.84
2023-08-17T05:37:08.854Z,70.13
2023-08-17T05:38:11.468Z,70.10
2023-08-17T05:39:13.809Z,69.54
2023-08-17T05:40:17.152Z,69.27
2023-08-17T05:41:19.467Z,69.38
2023-08-17T05:42:21.765Z,68.81
2023-08-17T05:43:24.949Z,68.81
2023-08-17T05:44:27.184Z,68.67
2023-08-17T05:45:30.165Z,68.99
2023-08-17T05:46:33.681Z,69.08
2023-08-17T05:47:35.997Z,69.65
2023-08-17T05:48:38.745Z,68.97
2023-08-17T05:49:41.289Z,69.34
2023-08-17T05:50:43.869Z,69.32
2023-08-17T05:51:47.068Z,69.33
2023-08-17T05:52:49.449Z,68.98
2023-08-17T05:53:51.995Z,68.62
2023-08-17T05:54:54.279Z,68.80
2023-08-17T05:55:56.643Z,68.69
2023-08-17T05:56:59.047Z,68.87
2023-08-17T05:58:02.757Z,68.69
2023-08-17T05:59:06.311Z,68.68
2023-08-17T06:00:14.768Z,68.52
2023-08-17T06:01:18.884Z,68.52
2023-08-17T06:02:21.160Z,68.26
2023-08-17T06:03:24.199Z,68.32
2023-08-17T06:04:26.596Z,68.73
2023-08-17T06:05:30.613Z,68.72
2023-08-17T06:06:33.731Z,68.84
2023-08-17T06:07:36.212Z,69.13
2023-08-17T06:08:38.477Z,69.11
2023-08-17T06:09:41.326Z,70.03
2023-08-17T06:10:45.129Z,69.44
2023-08-17T06:11:47.397Z,69.05
2023-08-17T06:12:49.466Z,68.76
2023-08-17T06:13:51.887Z,68.44
2023-08-17T06:14:54.351Z,68.07
2023-08-17T06:16:00.208Z,67.92
2023-08-17T06:17:02.454Z,67.88
2023-08-17T06:18:05.385Z,67.77
2023-08-17T06:19:08.009Z,67.59
2023-08-17T06:20:12.503Z,67.65
2023-08-17T06:21:15.292Z,67.70
2023-08-17T06:22:18.726Z,67.99
2023-08-17T06:23:21.564Z,68.08
2023-08-17T06:24:24.710Z,68.23
2023-08-17T06:25:27.519Z,67.33
2023-08-17T06:26:30.430Z,67.99
2023-08-17T06:27:34.131Z,67.52
2023-08-17T06:28:36.432Z,67.96
2023-08-17T06:29:39.637Z,67.05
2023-08-17T06:30:42.717Z,67.14
2023-08-17T06:31:47.301Z,67.00
2023-08-17T06:32:52.182Z,66.95
2023-08-17T06:33:55.849Z,66.35
2023-08-17T06:34:59.548Z,66.36
2023-08-17T06:36:01.887Z,66.39
2023-08-17T06:37:04.766Z,66.73
2023-08-17T06:38:07.148Z,65.42
2023-08-17T06:39:09.730Z,64.74
2023-08-17T06:40:14.321Z,64.70
2023-08-17T06:41:17.657Z,65.14
2023-08-17T06:42:20.001Z,65.28
2023-08-17T06:43:23.382Z,65.32
2023-08-17T06:44:25.920Z,65.71
2023-08-17T06:45:29.528Z,65.93
2023-08-17T06:46:32.511Z,65.33
2023-08-17T06:47:34.926Z,64.37
2023-08-17T06:48:36.941Z,64.02
2023-08-17T06:49:39.282Z,65.25
2023-08-17T06:50:42.140Z,64.19
2023-08-17T06:51:46.519Z,64.48
2023-08-17T06:52:49.136Z,64.95
2023-08-17T06:53:51.543Z,63.22
2023-08-17T06:54:53.730Z,62.74
2023-08-17T06:55:56.285Z,63.12
2023-08-17T06:56:58.929Z,62.42
2023-08-17T06:58:01.742Z,62.81
2023-08-17T06:59:04.546Z,63.14
2023-08-17T07:00:09.354Z,63.35
2023-08-17T07:01:11.547Z,62.39
2023-08-17T07:02:13.704Z,62.39
2023-08-17T07:03:16.766Z,61.90
2023-08-17T07:04:19.079Z,61.91
2023-08-17T07:05:21.614Z,61.38
2023-08-17T07:06:25.171Z,61.25
2023-08-17T07:07:27.981Z,60.89
2023-08-17T07:08:30.335Z,61.90
2023-08-17T07:09:33.748Z,60.78
2023-08-17T07:10:36.340Z,59.66
2023-08-17T07:11:39.795Z,60.09
2023-08-17T07:12:42.681Z,59.31
2023-08-17T07:13:44.919Z,58.88
2023-08-17T07:14:47.273Z,59.36
2023-08-17T07:15:49.468Z,59.46
2023-08-17T07:16:52.038Z,59.61
2023-08-17T07:17:54.868Z,59.42
2023-08-17T07:18:57.877Z,59.63
2023-08-17T07:20:15.739Z,59.71
2023-08-17T07:21:04.899Z,59.80
2023-08-17T07:22:07.315Z,59.61
2023-08-17T07:23:09.588Z,58.82
2023-08-17T07:24:14.063Z,58.19
2023-08-17T07:25:18.647Z,58.24
2023-08-17T07:26:21.321Z,58.30
2023-08-17T07:27:24.013Z,57.68
2023-08-17T07:28:27.598Z,57.94
2023-08-17T07:29:29.966Z,57.57
2023-08-17T07:30:32.362Z,57.34
2023-08-17T07:31:37.244Z,56.44
2023-08-17T07:32:39.680Z,56.23
2023-08-17T07:33:41.910Z,56.27
2023-08-17T07:34:44.471Z,58.81
2023-08-17T07:35:46.931Z,55.49
2023-08-17T07:36:50.633Z,55.45
2023-08-17T07:38:03.991Z,55.48
2023-08-17T07:38:58.013Z,54.39
2023-08-17T07:40:04.314Z,53.92
2023-08-17T07:41:06.850Z,54.12
2023-08-17T07:42:09.345Z,54.37
2023-08-17T07:43:11.593Z,55.13
2023-08-17T07:44:13.761Z,54.76
2023-08-17T07:45:16.410Z,55.27
2023-08-17T07:46:19.734Z,55.48
2023-08-17T07:47:22.213Z,55.64
2023-08-17T07:48:25.242Z,57.11
2023-08-17T07:49:32.583Z,55.25
2023-08-17T07:50:34.327Z,54.74
2023-08-17T07:51:36.591Z,55.27
2023-08-17T07:52:40.034Z,54.03
2023-08-17T07:53:42.530Z,54.62
2023-08-17T07:54:46.859Z,55.37
2023-08-17T07:55:50.657Z,54.41
2023-08-17T07:56:54.987Z,53.13
2023-08-17T07:57:57.377Z,53.37
2023-08-17T07:58:59.675Z,52.36
2023-08-17T08:00:01.920Z,52.09
2023-08-17T08:01:06.298Z,52.12
2023-08-17T08:02:10.665Z,53.20
2023-08-17T08:03:15.671Z,53.09
2023-08-17T08:04:17.865Z,52.53
2023-08-17T08:05:20.631Z,53.12
2023-08-17T08:06:24.626Z,52.17
2023-08-17T08:07:27.092Z,51.61
2023-08-17T08:08:30.604Z,52.81
2023-08-17T08:09:33.028Z,51.36
2023-08-17T08:10:35.474Z,50.99
2023-08-17T08:11:37.749Z,51.36
2023-08-17T08:12:40.816Z,51.93
2023-08-17T08:13:43.132Z,50.12
2023-08-17T08:14:46.307Z,51.01
2023-08-17T08:15:48.741Z,50.07
2023-08-17T08:16:51.566Z,50.25
2023-08-17T08:17:54.836Z,50.01
2023-08-17T08:18:57.689Z,50.17
2023-08-17T08:20:00.154Z,49.51
2023-08-17T08:21:02.473Z,49.73
2023-08-17T08:22:04.867Z,49.48
2023-08-17T08:23:07.091Z,51.44
2023-08-17T08:24:17.821Z,49.59
2023-08-17T08:25:14.514Z,49.41
2023-08-17T08:26:16.822Z,51.00
2023-08-17T08:27:19.287Z,50.28
2023-08-17T08:28:22.548Z,49.45
2023-08-17T08:29:24.752Z,47.73
2023-08-17T08:30:27.202Z,49.22
2023-08-17T08:31:29.466Z,49.74
2023-08-17T08:32:31.764Z,47.09
2023-08-17T08:33:35.160Z,46.61
2023-08-17T08:34:37.798Z,46.37
2023-08-17T08:35:40.928Z,48.72
2023-08-17T08:36:43.319Z,47.96
2023-08-17T08:37:45.470Z,47.08
2023-08-17T08:38:48.333Z,47.39
2023-08-17T08:39:52.596Z,47.18
2023-08-17T08:40:55.386Z,48.05
2023-08-17T08:41:59.210Z,47.93
2023-08-17T08:43:01.620Z,46.83
2023-08-17T08:44:05.146Z,47.51
2023-08-17T08:45:08.662Z,47.38
2023-08-17T08:46:13.110Z,47.53
2023-08-17T08:47:17.871Z,47.37
2023-08-17T08:48:23.649Z,48.15
2023-08-17T08:49:28.314Z,47.89
2023-08-17T08:50:32.841Z,48.33
2023-08-17T08:51:40.896Z,48.92
2023-08-17T08:52:46.845Z,47.36
2023-08-17T08:53:54.672Z,47.80
2023-08-17T08:54:59.449Z,47.45
2023-08-17T08:56:03.996Z,47.43
2023-08-17T08:57:10.188Z,47.48
2023-08-17T08:58:13.445Z,47.27
2023-08-17T08:59:18.349Z,45.52
2023-08-17T09:00:22.838Z,45.91
2023-08-17T09:01:26.638Z,46.15
2023-08-17T09:02:30.662Z,46.77
2023-08-17T09:03:33.702Z,45.78
2023-08-17T09:04:36.646Z,45.82
2023-08-17T09:05:41.451Z,46.43
2023-08-17T09:06:44.758Z,46.48
2023-08-17T09:07:49.411Z,46.17
2023-08-17T09:08:53.313Z,45.82
2023-08-17T09:09:56.893Z,46.26
2023-08-17T09:11:01.602Z,45.60
2023-08-17T09:12:06.255Z,45.85
2023-08-17T09:13:09.922Z,44.83
2023-08-17T09:14:12.435Z,45.44
2023-08-17T09:15:14.837Z,45.28
2023-08-17T09:16:19.011Z,44.82
2023-08-17T09:17:25.364Z,45.06
2023-08-17T09:18:27.849Z,45.03
2023-08-17T09:19:34.732Z,43.96
2023-08-17T09:20:47.136Z,46.31
2023-08-17T09:21:50.782Z,44.38
2023-08-17T09:22:54.642Z,44.69
2023-08-17T09:24:00.403Z,44.82
2023-08-17T09:25:03.265Z,45.43
2023-08-17T09:26:10.277Z,44.79
2023-08-17T09:27:14.313Z,44.21
2023-08-17T09:28:20.675Z,44.35
2023-08-17T09:29:26.243Z,44.51
2023-08-17T09:30:29.111Z,44.68
2023-08-17T09:31:33.309Z,44.48
2023-08-17T09:32:35.755Z,43.79
2023-08-17T09:33:38.816Z,44.46
2023-08-17T09:34:49.231Z,44.63
2023-08-17T09:35:51.497Z,44.70
2023-08-17T09:36:53.808Z,45.37
2023-08-17T09:37:55.881Z,44.32
2023-08-17T09:38:58.431Z,44.56
2023-08-17T09:40:01.596Z,44.29
2023-08-17T09:41:05.635Z,44.48
2023-08-17T09:42:07.916Z,44.39
2023-08-17T09:43:11.593Z,45.35
2023-08-17T09:44:14.462Z,45.37
2023-08-17T09:45:19.863Z,44.71
2023-08-17T09:46:22.341Z,45.08
2023-08-17T09:47:25.132Z,45.28
2023-08-17T09:48:33.046Z,45.12
2023-08-17T09:49:36.463Z,44.89
2023-08-17T09:50:39.072Z,44.92
2023-08-17T09:51:45.152Z,45.23
2023-08-17T09:52:51.318Z,45.24
2023-08-17T09:54:00.125Z,46.34
2023-08-17T09:55:08.123Z,44.45
2023-08-17T09:57:22.664Z,44.20
2023-08-17T09:58:21.798Z,44.41
2023-08-17T09:59:25.408Z,43.45
2023-08-17T10:00:30.254Z,43.76
2023-08-17T10:01:33.954Z,43.90
2023-08-17T10:02:36.396Z,44.20
2023-08-17T10:03:42.848Z,43.66
2023-08-17T10:04:47.648Z,43.67
2023-08-17T10:05:55.765Z,43.74
2023-08-17T10:07:05.626Z,43.34
2023-08-17T10:08:08.622Z,43.58
2023-08-17T10:09:13.974Z,44.60
2023-08-17T10:10:21.635Z,45.59
2023-08-17T10:11:24.856Z,43.74
2023-08-17T10:12:30.717Z,43.56
2023-08-17T10:13:39.929Z,42.56
2023-08-17T10:14:48.354Z,42.33
2023-08-17T10:15:54.219Z,42.82
2023-08-17T10:17:07.375Z,41.99
2023-08-17T10:18:22.614Z,41.94
2023-08-17T10:19:45.088Z,42.34
2023-08-17T10:20:51.633Z,42.21
2023-08-17T10:22:19.876Z,41.59
2023-08-17T10:23:24.892Z,42.33
2023-08-17T10:24:29.075Z,42.37
2023-08-17T10:25:32.745Z,42.28
2023-08-17T10:26:35.542Z,42.22
2023-08-17T10:27:38.385Z,43.53
2023-08-17T10:28:41.894Z,42.90
2023-08-17T10:29:45.631Z,42.85
2023-08-17T10:30:48.950Z,42.63
2023-08-17T10:31:52.259Z,42.27
2023-08-17T10:32:55.447Z,42.53
2023-08-17T10:33:59.007Z,42.40
2023-08-17T10:35:03.031Z,42.32
2023-08-17T10:36:07.615Z,42.29
2023-08-17T10:37:13.148Z,41.02
2023-08-17T10:38:18.473Z,41.13
2023-08-17T10:39:26.034Z,41.06
2023-08-17T10:40:29.018Z,41.34
2023-08-17T10:41:32.059Z,41.14
2023-08-17T10:42:37.857Z,41.47
2023-08-17T10:43:58.685Z,41.37
2023-08-17T10:45:03.638Z,41.06
2023-08-17T10:46:20.595Z,40.83
2023-08-17T10:47:36.441Z,40.13
2023-08-17T10:48:37.957Z,40.52
2023-08-17T10:49:43.164Z,41.98
2023-08-17T10:51:01.290Z,41.20
2023-08-17T10:52:06.239Z,40.90
2023-08-17T10:53:13.170Z,41.33
2023-08-17T10:54:15.640Z,41.30
2023-08-17T10:55:21.004Z,40.95
2023-08-17T10:56:28.073Z,40.88
2023-08-17T10:57:39.106Z,40.81
2023-08-17T10:58:43.899Z,41.32
2023-08-17T10:59:47.317Z,41.24
2023-08-17T11:00:53.480Z,41.70
2023-08-17T11:01:56.287Z,41.98
2023-08-17T11:03:01.650Z,41.15
2023-08-17T11:04:16.732Z,41.20
2023-08-17T11:05:40.642Z,41.62
2023-08-17T11:06:44.994Z,41.06
2023-08-17T11:07:48.376Z,40.44
2023-08-17T11:08:56.318Z,40.36
2023-08-17T11:09:59.504Z,39.70
2023-08-17T11:11:07.662Z,39.67
2023-08-17T11:12:13.512Z,40.02
2023-08-17T11:13:15.938Z,41.42
2023-08-17T11:14:18.747Z,41.12
2023-08-17T11:15:20.951Z,40.60
2023-08-17T11:16:23.760Z,39.37
2023-08-17T11:17:26.779Z,38.24
2023-08-17T11:18:29.414Z,38.01
2023-08-17T11:19:31.728Z,38.94
2023-08-17T11:20:36.096Z,38.03
2023-08-17T11:21:39.671Z,38.19
2023-08-17T11:22:43.143Z,38.08
2023-08-17T11:23:45.564Z,38.15
2023-08-17T11:24:49.124Z,38.12
2023-08-17T11:25:53.361Z,38.62
2023-08-17T11:26:57.908Z,38.15
2023-08-17T11:28:01.062Z,38.18
2023-08-17T11:29:04.046Z,38.21
2023-08-17T11:30:08.516Z,37.97
2023-08-17T11:31:13.876Z,38.24
2023-08-17T11:32:20.010Z,37.44
2023-08-17T11:33:22.489Z,37.80
2023-08-17T11:34:26.050Z,37.46
2023-08-17T11:35:28.269Z,36.69
2023-08-17T11:36:30.553Z,37.16
2023-08-17T11:37:33.350Z,37.51
2023-08-17T11:38:39.103Z,37.63
2023-08-17T11:39:42.657Z,37.80
2023-08-17T11:40:45.633Z,38.25
2023-08-17T11:41:50.307Z,37.62
2023-08-17T11:42:52.810Z,37.21
2023-08-17T11:43:56.546Z,36.98
2023-08-17T11:44:59.297Z,36.98
2023-08-17T11:46:02.572Z,36.93
2023-08-17T11:47:06.825Z,36.00
2023-08-17T11:48:10.069Z,36.42
2023-08-17T11:49:13.804Z,36.42
2023-08-17T11:50:21.339Z,34.72
2023-08-17T11:51:31.637Z,35.70
2023-08-17T11:52:34.634Z,35.00
2023-08-17T11:53:39.523Z,35.65
2023-08-17T11:54:43.334Z,35.71
2023-08-17T11:55:45.648Z,35.45
2023-08-17T11:56:49.260Z,34.89
2023-08-17T11:57:51.636Z,34.90
2023-08-17T11:58:53.970Z,34.44
2023-08-17T11:59:57.520Z,35.06
2023-08-17T12:01:01.279Z,34.63
2023-08-17T12:02:03.633Z,34.03
2023-08-17T12:03:07.523Z,35.01
2023-08-17T12:04:10.094Z,33.88
2023-08-17T12:05:12.293Z,34.21
2023-08-17T12:06:17.173Z,34.06
2023-08-17T12:07:20.282Z,34.66
2023-08-17T12:08:23.542Z,34.22
2023-08-17T12:09:26.520Z,33.69
2023-08-17T12:10:30.539Z,33.87
2023-08-17T12:11:33.546Z,33.98
2023-08-17T12:12:41.444Z,34.28
2023-08-17T12:13:46.714Z,34.92
2023-08-17T12:14:49.813Z,34.73
2023-08-17T12:15:53.243Z,34.56
2023-08-17T12:16:57.033Z,34.45
2023-08-17T12:18:04.663Z,34.55
2023-08-17T12:19:08.109Z,34.77
2023-08-17T12:20:18.802Z,34.81
2023-08-17T12:21:24.038Z,35.04
2023-08-17T12:22:27.967Z,35.29
2023-08-17T12:23:34.594Z,34.74
2023-08-17T12:24:38.297Z,34.83
2023-08-17T12:25:40.623Z,35.98
2023-08-17T12:26:48.717Z,34.51
2023-08-17T12:27:52.451Z,34.67
2023-08-17T12:28:54.950Z,34.25
2023-08-17T12:29:57.466Z,34.74
2023-08-17T12:31:04.201Z,34.75
2023-08-17T12:32:08.013Z,35.53
2023-08-17T12:33:10.562Z,35.59
2023-08-17T12:34:13.501Z,34.57
2023-08-17T12:35:15.773Z,33.64
2023-08-17T12:36:19.299Z,33.66
2023-08-17T12:37:22.056Z,34.01
2023-08-17T12:38:25.516Z,34.02
2023-08-17T12:39:28.926Z,33.72
2023-08-17T12:40:31.303Z,33.72
2023-08-17T12:41:33.517Z,32.36
2023-08-17T12:42:35.757Z,33.16
2023-08-17T12:43:39.325Z,32.39
2023-08-17T12:44:42.267Z,32.78
2023-08-17T12:45:45.586Z,33.08
2023-08-17T12:46:48.114Z,33.09
2023-08-17T12:47:52.239Z,32.49
2023-08-17T12:48:55.197Z,33.02
2023-08-17T12:49:57.811Z,32.77
2023-08-17T12:51:02.782Z,33.32
2023-08-17T12:52:05.827Z,32.45
2023-08-17T12:53:07.997Z,33.58
2023-08-17T12:54:10.202Z,33.73
2023-08-17T12:55:13.337Z,33.51
2023-08-17T12:56:16.902Z,33.28
2023-08-17T12:57:20.334Z,33.55
2023-08-17T12:58:22.893Z,32.46
2023-08-17T12:59:25.330Z,33.09
2023-08-17T13:00:28.736Z,32.92
2023-08-17T13:01:31.056Z,32.83
2023-08-17T13:02:33.890Z,32.12
2023-08-17T13:03:37.318Z,32.23
2023-08-17T13:04:40.847Z,31.79
2023-08-17T13:05:43.119Z,32.17
2023-08-17T13:06:49.860Z,31.51
2023-08-17T13:07:50.565Z,31.42
2023-08-17T13:08:54.155Z,31.93
2023-08-17T13:09:56.384Z,32.00
2023-08-17T13:11:00.981Z,31.58
2023-08-17T13:12:04.125Z,32.14
2023-08-17T13:13:06.671Z,31.76
2023-08-17T13:14:09.437Z,31.78
2023-08-17T13:15:12.126Z,31.60
2023-08-17T13:16:14.876Z,30.90
2023-08-17T13:17:18.988Z,30.64
2023-08-17T13:18:21.841Z,29.61
2023-08-17T13:19:24.140Z,29.73
2023-08-17T13:20:26.561Z,29.85
2023-08-17T13:21:29.162Z,29.85
2023-08-17T13:22:31.591Z,29.92
2023-08-17T13:23:35.353Z,29.70
2023-08-17T13:24:38.392Z,29.70
2023-08-17T13:25:40.598Z,29.72
2023-08-17T13:26:43.917Z,30.52
2023-08-17T13:27:47.132Z,29.81
2023-08-17T13:28:49.402Z,30.13
2023-08-17T13:29:51.629Z,29.75
2023-08-17T13:30:54.038Z,29.53
2023-08-17T13:31:56.248Z,29.70
2023-08-17T13:32:58.774Z,30.09
2023-08-17T13:34:01.030Z,29.86
2023-08-17T13:35:04.422Z,28.97
2023-08-17T13:36:07.825Z,29.56
2023-08-17T13:37:10.508Z,29.51
2023-08-17T13:38:13.371Z,29.98
2023-08-17T13:39:16.390Z,29.48
2023-08-17T13:40:20.030Z,29.08
2023-08-17T13:41:24.497Z,29.58
2023-08-17T13:42:27.807Z,28.74
2023-08-17T13:43:31.260Z,28.35
2023-08-17T13:44:33.528Z,28.32
2023-08-17T13:45:36.960Z,28.38